DW2004 Weather Reports


Display with metric or nautical units.
time (UTC)temp
F
wind
direction
speed
MPH
gust
MPH
rain 1hr
in
rain 24hr
in
rain mn
in
humidity
%
barometer
mb
20190424180055 63 57 0.0 0.0 0.00 2.65 0.90 93 1009.2
20190424174526 63 60 0.0 0.0 0.00 2.65 0.90 93 1009.2
20190424173021 62 306 0.0 0.0 0.00 2.65 0.90 93 1010.1
20190424171512 62 298 0.0 0.0 0.00 2.65 0.90 93 1012.0
20190424170013 62 304 0.0 11.0 0.00 2.65 0.90 93 1013.0
20190424164521 63 237 0.0 5.0 0.01 2.65 0.90 93 1012.1
20190424163053 62 199 1.0 9.0 0.01 2.65 0.90 93 1008.8
20190424161514 62 165 1.0 10.0 0.01 2.65 0.90 93 1009.2
20190424160028 61 229 0.0 0.0 0.01 2.65 0.90 93 1011.1
20190424154548 61 229 0.0 0.0 0.00 2.64 0.89 93 1012.8
20190424153009 61 229 0.0 6.0 0.00 2.64 0.89 93 1012.1
20190424151520 62 156 0.0 0.0 0.00 2.64 0.89 93 1011.3
20190424150007 61 163 0.0 8.0 0.00 2.64 0.89 93 1010.3
20190424144525 61 134 0.0 6.0 0.00 2.64 0.89 93 1010.6
20190424143009 61 278 0.0 0.0 0.00 2.64 0.89 93 1011.2
20190424141505 61 279 0.0 0.0 0.00 2.64 0.89 93 1011.4
20190424140006 61 279 0.0 0.0 0.00 2.64 0.89 93 1011.8
20190424134506 61 277 0.0 0.0 0.00 2.64 0.89 93 1011.8
20190424133005 61 277 0.0 3.0 0.00 2.64 0.89 93 1012.1
20190424131501 60 283 0.0 0.0 0.00 2.64 0.89 93 1012.1
20190424124701 60 286 0.0 3.0 0.00 2.64 0.89 93 1011.1
20190424123226 60 280 0.0 0.0 0.00 2.64 0.89 93 1011.5
20190424121701 60 287 0.0 3.0 0.00 2.64 0.89 93 1011.7
20190424120159 60 284 0.0 8.0 0.00 2.64 0.89 93 1011.3
20190424114647 60 322 2.0 11.0 0.00 2.64 0.89 93 1011.0
20190424113309 60 355 0.0 0.0 0.00 2.64 0.89 93 1009.5
20190424111630 60 240 0.0 4.0 0.00 2.64 0.89 93 1008.6
20190424110220 60 206 0.0 8.0 0.03 2.64 0.89 93 1008.2
20190424104712 60 213 0.0 7.0 0.05 2.64 0.89 93 1008.6
20190424103126 60 269 0.0 8.0 0.08 2.64 0.89 93 1008.9
20190424101602 60 69 1.0 14.0 0.12 2.64 0.89 93 1008.3
20190424100127 60 169 1.0 11.0 0.14 2.61 0.86 92 1009.2
20190424094659 60 146 1.0 9.0 0.20 2.59 0.84 92 1010.1
20190424093142 61 233 0.0 0.0 0.22 2.56 0.81 92 1011.1
20190424090210 61 233 0.0 1.0 0.20 2.47 0.72 92 1012.3
20190424084631 61 223 0.0 4.0 0.15 2.39 0.64 92 1012.6
20190424083050 61 209 0.0 0.0 0.15 2.34 0.59 92 1012.7
20190424081628 61 140 1.0 7.0 0.17 2.29 0.55 92 1011.9
20190424080048 61 161 0.0 7.0 0.20 2.27 0.52 92 1012.0
20190424074540 62 144 1.0 9.0 0.22 2.23 0.48 92 1011.7
20190424073038 62 119 4.0 14.0 0.22 2.18 0.43 92 1011.7
20190424071530 62 149 0.0 0.0 0.20 2.13 0.38 91 1012.6
20190424070109 62 109 0.0 6.0 0.17 2.06 0.32 91 1012.1
20190424064630 62 55 0.0 1.0 0.13 2.00 0.26 91 1012.1
20190424063102 62 184 0.0 0.0 0.11 1.96 0.21 91 1012.5
20190424061537 62 184 0.0 0.0 0.13 1.93 0.18 91 1012.4
20190424060028 62 184 0.0 0.0 0.15 1.90 0.15 91 1012.6
20190424054546 62 184 0.0 0.0 0.16 1.87 0.12 91 1012.9
20190424053050 62 184 0.0 0.0 0.18 1.85 0.10 91 1012.9
20190424051535 63 184 0.0 0.0 0.16 1.80 0.05 90 1013.3
20190424050023 63 192 0.0 6.0 0.15 1.75 1.75 90 1012.8
20190424044530 63 196 0.0 10.0 0.18 1.70 1.70 90 1012.7
20190424043035 63 132 2.0 10.0 0.25 1.67 1.67 90 1012.8
20190424041515 63 69 0.0 0.0 0.31 1.64 1.64 90 1012.3
20190424040011 62 94 2.0 8.0 0.75 1.60 1.60 89 1011.7
20190424034510 63 105 0.0 7.0 1.44 1.52 1.52 89 1012.7
20190424033015 64 167 0.0 4.0 1.40 1.42 1.42 89 1013.3
20190424031524 63 39 2.0 6.0 1.32 1.33 1.33 87 1011.7
20190424030003 68 298 5.0 21.0 0.83 0.83 0.83 88 1012.2
20190424024723 69 48 0.0 0.0 0.10 0.10 0.10 87 1011.5
20190424023207 69 48 0.0 1.0 0.02 0.02 0.02 87 1011.0
20190424021806 69 65 0.0 0.0 0.01 0.01 0.01 86 1011.3
20190424020140 69 65 0.0 0.0 0.00 0.00 0.00 85 1011.3
20190424014615 70 66 0.0 0.0 0.00 0.00 0.00 84 1011.0
20190424013248 70 66 0.0 0.0 0.00 0.00 0.00 83 1010.8
20190424011705 70 262 0.0 4.0 0.00 0.00 0.00 82 1010.5
20190424010130 71 187 0.0 2.0 0.00 0.00 0.00 80 1010.5
20190424004831 71 223 0.0 7.0 0.00 0.00 0.00 79 1010.4
20190424003118 72 196 0.0 3.0 0.00 0.00 0.00 79 1010.4
20190424001733 72 244 1.0 10.0 0.00 0.00 0.00 78 1010.7
20190424000136 72 241 0.0 9.0 0.00 0.00 0.00 78 1010.8
20190423234629 73 190 0.0 4.0 0.00 0.00 0.00 77 1010.7
20190423233124 73 233 0.0 6.0 0.00 0.00 0.00 77 1010.8
20190423231638 73 225 0.0 1.0 0.00 0.00 0.00 77 1011.2
20190423230115 73 233 0.0 6.0 0.00 0.00 0.00 77 1011.4
20190423224656 73 211 0.0 5.0 0.00 0.00 0.00 76 1011.1
20190423223121 73 200 0.0 7.0 0.00 0.00 0.00 76 1011.7
20190423221658 73 232 0.0 6.0 0.00 0.00 0.00 76 1011.9
20190423220106 74 210 0.0 4.0 0.00 0.00 0.00 75 1011.8
20190423214710 74 217 0.0 6.0 0.00 0.00 0.00 74 1011.9
20190423213112 76 244 0.0 11.0 0.00 0.00 0.00 74 1011.6
20190423211619 74 105 0.0 0.0 0.00 0.00 0.00 79 1011.7
20190423210055 73 105 0.0 1.0 0.00 0.00 0.00 80 1012.2
20190423204613 73 156 0.0 7.0 0.00 0.00 0.00 78 1012.5
20190423203040 74 203 0.0 8.0 0.00 0.00 0.00 74 1012.7
20190423201628 75 210 0.0 5.0 0.00 0.00 0.00 74 1012.8
20190423200106 75 237 0.0 3.0 0.00 0.00 0.00 74 1012.9
20190423194542 76 130 0.0 3.0 0.00 0.00 0.00 74 1013.0
20190423193136 75 215 1.0 8.0 0.00 0.00 0.00 74 1012.9
20190423191553 75 196 0.0 4.0 0.00 0.00 0.00 72 1013.0
20190423190037 75 210 1.0 9.0 0.00 0.00 0.00 72 1013.3
20190423184601 75 189 2.0 12.0 0.00 0.00 0.00 72 1013.4
20190423183038 75 223 1.0 8.0 0.00 0.00 0.00 72 1013.6
20190423181534 74 174 0.0 7.0 0.00 0.00 0.00 73 1013.7